sensor_id;sensor_type;location;lat;lon;timestamp;P1;durP1;ratioP1;P2;durP2;ratioP2
55545;SDS011;44768;50.298;127.520;2022-09-13T00:04:59;5.32;;;0.90;;
55545;SDS011;44768;50.298;127.520;2022-09-13T00:10:00;4.50;;;0.82;;
55545;SDS011;44768;50.298;127.520;2022-09-13T00:15:03;3.75;;;0.70;;
55545;SDS011;44768;50.298;127.520;2022-09-13T00:20:05;5.70;;;0.80;;
55545;SDS011;44768;50.298;127.520;2022-09-13T00:25:08;3.72;;;1.20;;
55545;SDS011;44768;50.298;127.520;2022-09-13T00:30:10;4.32;;;0.80;;
55545;SDS011;44768;50.298;127.520;2022-09-13T00:35:12;2.45;;;0.75;;
55545;SDS011;44768;50.298;127.520;2022-09-13T00:40:13;1.50;;;0.68;;
55545;SDS011;44768;50.298;127.520;2022-09-13T00:45:16;1.17;;;0.70;;
55545;SDS011;44768;50.298;127.520;2022-09-13T00:55:32;4.90;;;0.63;;
55545;SDS011;44768;50.298;127.520;2022-09-13T01:00:35;2.35;;;0.60;;
55545;SDS011;44768;50.298;127.520;2022-09-13T01:05:40;3.22;;;0.60;;
55545;SDS011;44768;50.298;127.520;2022-09-13T01:10:42;4.63;;;0.75;;
55545;SDS011;44768;50.298;127.520;2022-09-13T01:15:44;4.05;;;0.80;;
55545;SDS011;44768;50.298;127.520;2022-09-13T01:31:39;3.03;;;0.60;;
55545;SDS011;44768;50.298;127.520;2022-09-13T01:57:14;6.32;;;0.90;;
55545;SDS011;44768;50.298;127.520;2022-09-13T02:02:27;4.75;;;1.27;;
55545;SDS011;44768;50.298;127.520;2022-09-13T02:07:35;10.52;;;1.70;;
55545;SDS011;44768;50.298;127.520;2022-09-13T02:12:39;5.03;;;1.50;;
55545;SDS011;44768;50.298;127.520;2022-09-13T02:17:42;12.55;;;1.60;;
55545;SDS011;44768;50.298;127.520;2022-09-13T02:22:47;7.13;;;1.30;;
55545;SDS011;44768;50.298;127.520;2022-09-13T02:27:51;5.00;;;1.60;;
55545;SDS011;44768;50.298;127.520;2022-09-13T02:32:56;2.88;;;1.23;;
55545;SDS011;44768;50.298;127.520;2022-09-13T02:38:01;2.20;;;1.30;;
55545;SDS011;44768;50.298;127.520;2022-09-13T02:43:04;6.35;;;1.58;;
55545;SDS011;44768;50.298;127.520;2022-09-13T02:48:08;8.35;;;1.40;;
55545;SDS011;44768;50.298;127.520;2022-09-13T02:53:13;5.45;;;1.38;;
55545;SDS011;44768;50.298;127.520;2022-09-13T03:03:17;6.38;;;1.85;;
55545;SDS011;44768;50.298;127.520;2022-09-13T03:08:18;12.48;;;1.60;;
55545;SDS011;44768;50.298;127.520;2022-09-13T03:13:28;1.05;;;0.70;;
55545;SDS011;44768;50.298;127.520;2022-09-13T03:39:59;3.97;;;0.60;;
55545;SDS011;44768;50.298;127.520;2022-09-13T03:45:04;4.13;;;1.00;;
55545;SDS011;44768;50.298;127.520;2022-09-13T03:50:08;2.50;;;0.95;;
55545;SDS011;44768;50.298;127.520;2022-09-13T03:55:10;2.10;;;0.73;;
55545;SDS011;44768;50.298;127.520;2022-09-13T04:00:12;2.38;;;0.90;;
55545;SDS011;44768;50.298;127.520;2022-09-13T04:05:14;24.50;;;2.42;;
55545;SDS011;44768;50.298;127.520;2022-09-13T04:10:15;58.45;;;4.82;;
55545;SDS011;44768;50.298;127.520;2022-09-13T04:15:17;26.70;;;3.88;;
55545;SDS011;44768;50.298;127.520;2022-09-13T04:20:18;27.48;;;4.55;;
55545;SDS011;44768;50.298;127.520;2022-09-13T04:25:20;26.60;;;4.45;;
55545;SDS011;44768;50.298;127.520;2022-09-13T04:30:22;33.55;;;5.80;;
55545;SDS011;44768;50.298;127.520;2022-09-13T04:40:24;53.85;;;8.07;;
55545;SDS011;44768;50.298;127.520;2022-09-13T04:50:28;48.33;;;8.50;;
55545;SDS011;44768;50.298;127.520;2022-09-13T04:55:30;32.67;;;5.88;;
55545;SDS011;44768;50.298;127.520;2022-09-13T05:00:32;42.50;;;5.25;;
55545;SDS011;44768;50.298;127.520;2022-09-13T05:05:33;26.50;;;4.75;;
55545;SDS011;44768;50.298;127.520;2022-09-13T05:10:34;14.63;;;2.85;;
55545;SDS011;44768;50.298;127.520;2022-09-13T05:15:36;32.53;;;3.58;;
55545;SDS011;44768;50.298;127.520;2022-09-13T05:20:37;36.20;;;6.00;;
55545;SDS011;44768;50.298;127.520;2022-09-13T05:25:38;23.38;;;3.60;;
55545;SDS011;44768;50.298;127.520;2022-09-13T05:30:39;21.13;;;5.63;;
55545;SDS011;44768;50.298;127.520;2022-09-13T05:35:41;5.93;;;1.00;;
55545;SDS011;44768;50.298;127.520;2022-09-13T05:40:42;10.52;;;1.20;;
55545;SDS011;44768;50.298;127.520;2022-09-13T05:45:43;20.02;;;3.50;;
55545;SDS011;44768;50.298;127.520;2022-09-13T05:50:45;8.98;;;0.90;;
55545;SDS011;44768;50.298;127.520;2022-09-13T05:55:46;7.95;;;1.00;;
55545;SDS011;44768;50.298;127.520;2022-09-13T06:00:57;10.25;;;2.60;;
55545;SDS011;44768;50.298;127.520;2022-09-13T06:05:58;8.75;;;1.40;;
55545;SDS011;44768;50.298;127.520;2022-09-13T06:11:00;16.00;;;2.63;;
55545;SDS011;44768;50.298;127.520;2022-09-13T06:16:03;26.48;;;3.17;;
55545;SDS011;44768;50.298;127.520;2022-09-13T06:21:06;21.73;;;5.40;;
55545;SDS011;44768;50.298;127.520;2022-09-13T06:26:12;30.20;;;4.55;;
55545;SDS011;44768;50.298;127.520;2022-09-13T06:31:14;17.40;;;2.35;;
55545;SDS011;44768;50.298;127.520;2022-09-13T06:36:16;28.70;;;3.40;;
55545;SDS011;44768;50.298;127.520;2022-09-13T06:41:19;57.60;;;8.20;;
55545;SDS011;44768;50.298;127.520;2022-09-13T06:46:21;61.13;;;9.25;;
55545;SDS011;44768;50.298;127.520;2022-09-13T06:51:24;66.40;;;10.93;;
55545;SDS011;44768;50.298;127.520;2022-09-13T06:56:27;68.57;;;9.77;;
55545;SDS011;44768;50.298;127.520;2022-09-13T07:06:31;67.05;;;11.68;;
55545;SDS011;44768;50.298;127.520;2022-09-13T07:11:34;76.43;;;9.10;;
55545;SDS011;44768;50.298;127.520;2022-09-13T07:16:36;35.60;;;6.50;;
55545;SDS011;44768;50.298;127.520;2022-09-13T07:21:38;12.07;;;1.90;;
55545;SDS011;44768;50.298;127.520;2022-09-13T07:26:40;12.32;;;3.15;;
55545;SDS011;44768;50.298;127.520;2022-09-13T07:36:42;19.40;;;3.03;;
55545;SDS011;44768;50.298;127.520;2022-09-13T07:41:45;22.90;;;2.17;;
55545;SDS011;44768;50.298;127.520;2022-09-13T07:46:46;17.98;;;4.35;;
55545;SDS011;44768;50.298;127.520;2022-09-13T07:51:48;11.55;;;2.75;;
55545;SDS011;44768;50.298;127.520;2022-09-13T07:56:50;15.75;;;3.00;;
55545;SDS011;44768;50.298;127.520;2022-09-13T08:06:52;15.27;;;2.67;;
55545;SDS011;44768;50.298;127.520;2022-09-13T08:16:55;19.38;;;2.78;;
55545;SDS011;44768;50.298;127.520;2022-09-13T08:21:59;13.75;;;2.60;;
55545;SDS011;44768;50.298;127.520;2022-09-13T08:27:01;17.85;;;4.78;;
55545;SDS011;44768;50.298;127.520;2022-09-13T08:32:02;14.85;;;2.50;;
55545;SDS011;44768;50.298;127.520;2022-09-13T08:37:04;22.55;;;3.42;;
55545;SDS011;44768;50.298;127.520;2022-09-13T08:42:10;15.02;;;2.40;;
55545;SDS011;44768;50.298;127.520;2022-09-13T08:52:28;22.63;;;7.22;;
55545;SDS011;44768;50.298;127.520;2022-09-13T08:57:31;32.38;;;2.60;;
55545;SDS011;44768;50.298;127.520;2022-09-13T09:02:46;30.52;;;2.95;;
55545;SDS011;44768;50.298;127.520;2022-09-13T09:12:56;22.08;;;3.00;;
55545;SDS011;44768;50.298;127.520;2022-09-13T09:23:11;18.60;;;3.38;;
55545;SDS011;44768;50.298;127.520;2022-09-13T09:28:13;18.52;;;4.70;;
55545;SDS011;44768;50.298;127.520;2022-09-13T09:43:26;33.38;;;4.05;;
55545;SDS011;44768;50.298;127.520;2022-09-13T09:48:34;27.95;;;4.70;;
55545;SDS011;44768;50.298;127.520;2022-09-13T09:53:43;30.15;;;4.95;;
55545;SDS011;44768;50.298;127.520;2022-09-13T09:58:45;50.95;;;16.40;;
55545;SDS011;44768;50.298;127.520;2022-09-13T10:03:52;59.13;;;25.58;;
55545;SDS011;44768;50.298;127.520;2022-09-13T10:08:56;48.20;;;16.65;;
55545;SDS011;44768;50.298;127.520;2022-09-13T10:14:01;22.45;;;7.15;;
55545;SDS011;44768;50.298;127.520;2022-09-13T10:19:25;21.15;;;5.10;;
55545;SDS011;44768;50.298;127.520;2022-09-13T10:24:24;10.17;;;3.87;;
55545;SDS011;44768;50.298;127.520;2022-09-13T10:29:27;17.80;;;3.45;;
55545;SDS011;44768;50.298;127.520;2022-09-13T10:34:28;22.98;;;3.30;;
55545;SDS011;44768;50.298;127.520;2022-09-13T10:39:32;17.10;;;2.58;;
55545;SDS011;44768;50.298;127.520;2022-09-13T10:54:40;18.92;;;3.15;;
55545;SDS011;44768;50.298;127.520;2022-09-13T10:59:42;24.05;;;5.38;;
55545;SDS011;44768;50.298;127.520;2022-09-13T11:05:11;13.18;;;4.25;;
55545;SDS011;44768;50.298;127.520;2022-09-13T11:25:43;17.02;;;4.00;;
55545;SDS011;44768;50.298;127.520;2022-09-13T11:30:59;12.63;;;3.15;;
55545;SDS011;44768;50.298;127.520;2022-09-13T11:41:21;8.82;;;2.58;;
55545;SDS011;44768;50.298;127.520;2022-09-13T11:52:06;9.27;;;3.33;;
55545;SDS011;44768;50.298;127.520;2022-09-13T11:57:12;12.10;;;3.42;;
55545;SDS011;44768;50.298;127.520;2022-09-13T12:07:30;13.32;;;3.85;;
55545;SDS011;44768;50.298;127.520;2022-09-13T12:12:34;16.42;;;3.40;;
55545;SDS011;44768;50.298;127.520;2022-09-13T12:17:47;8.27;;;2.88;;
55545;SDS011;44768;50.298;127.520;2022-09-13T12:22:50;21.27;;;4.85;;
55545;SDS011;44768;50.298;127.520;2022-09-13T12:33:14;8.82;;;2.03;;
55545;SDS011;44768;50.298;127.520;2022-09-13T13:04:38;12.23;;;3.45;;
55545;SDS011;44768;50.298;127.520;2022-09-13T13:09:47;8.60;;;3.00;;
55545;SDS011;44768;50.298;127.520;2022-09-13T13:14:48;11.77;;;3.25;;
55545;SDS011;44768;50.298;127.520;2022-09-13T13:19:54;17.63;;;3.38;;
55545;SDS011;44768;50.298;127.520;2022-09-13T13:24:56;11.07;;;3.00;;
55545;SDS011;44768;50.298;127.520;2022-09-13T13:35:35;8.20;;;2.85;;
55545;SDS011;44768;50.298;127.520;2022-09-13T13:40:36;9.88;;;2.83;;
55545;SDS011;44768;50.298;127.520;2022-09-13T13:45:38;10.52;;;2.28;;
55545;SDS011;44768;50.298;127.520;2022-09-13T13:56:19;10.48;;;2.00;;
55545;SDS011;44768;50.298;127.520;2022-09-13T14:01:24;3.70;;;1.75;;
55545;SDS011;44768;50.298;127.520;2022-09-13T14:06:30;5.47;;;1.52;;
55545;SDS011;44768;50.298;127.520;2022-09-13T14:11:43;2.85;;;1.25;;
55545;SDS011;44768;50.298;127.520;2022-09-13T14:22:18;2.78;;;1.15;;
55545;SDS011;44768;50.298;127.520;2022-09-13T14:27:20;5.45;;;1.48;;
55545;SDS011;44768;50.298;127.520;2022-09-13T14:32:24;1.73;;;1.27;;
55545;SDS011;44768;50.298;127.520;2022-09-13T14:37:27;5.93;;;1.23;;
55545;SDS011;44768;50.298;127.520;2022-09-13T14:42:45;3.88;;;1.10;;
55545;SDS011;44768;50.298;127.520;2022-09-13T14:47:57;5.47;;;1.48;;
55545;SDS011;44768;50.298;127.520;2022-09-13T14:53:02;7.90;;;1.25;;
55545;SDS011;44768;50.298;127.520;2022-09-13T14:58:05;5.80;;;1.30;;
55545;SDS011;44768;50.298;127.520;2022-09-13T15:03:11;2.75;;;1.23;;
55545;SDS011;44768;50.298;127.520;2022-09-13T15:08:24;2.28;;;1.10;;
55545;SDS011;44768;50.298;127.520;2022-09-13T15:13:26;8.43;;;1.10;;
55545;SDS011;44768;50.298;127.520;2022-09-13T15:18:30;1.50;;;1.10;;
55545;SDS011;44768;50.298;127.520;2022-09-13T15:23:39;4.53;;;1.20;;
55545;SDS011;44768;50.298;127.520;2022-09-13T15:28:51;13.70;;;1.30;;
55545;SDS011;44768;50.298;127.520;2022-09-13T15:34:18;3.60;;;1.20;;
55545;SDS011;44768;50.298;127.520;2022-09-13T15:39:22;3.05;;;1.30;;
55545;SDS011;44768;50.298;127.520;2022-09-13T15:44:24;3.05;;;1.25;;
55545;SDS011;44768;50.298;127.520;2022-09-13T15:49:26;7.10;;;1.60;;
55545;SDS011;44768;50.298;127.520;2022-09-13T15:59:32;2.38;;;1.85;;
55545;SDS011;44768;50.298;127.520;2022-09-13T16:04:33;2.63;;;1.65;;
55545;SDS011;44768;50.298;127.520;2022-09-13T16:14:38;4.88;;;1.80;;
55545;SDS011;44768;50.298;127.520;2022-09-13T16:19:39;5.50;;;1.77;;
55545;SDS011;44768;50.298;127.520;2022-09-13T16:29:42;6.00;;;1.90;;
55545;SDS011;44768;50.298;127.520;2022-09-13T16:34:43;3.83;;;1.63;;
55545;SDS011;44768;50.298;127.520;2022-09-13T16:39:44;3.28;;;1.65;;
55545;SDS011;44768;50.298;127.520;2022-09-13T16:44:45;6.00;;;1.75;;
55545;SDS011;44768;50.298;127.520;2022-09-13T16:49:46;5.35;;;1.50;;
55545;SDS011;44768;50.298;127.520;2022-09-13T16:54:48;2.40;;;1.75;;
55545;SDS011;44768;50.298;127.520;2022-09-13T16:59:51;5.30;;;1.55;;
55545;SDS011;44768;50.298;127.520;2022-09-13T17:09:53;4.45;;;1.48;;
55545;SDS011;44768;50.298;127.520;2022-09-13T17:14:55;7.65;;;2.05;;
55545;SDS011;44768;50.298;127.520;2022-09-13T17:19:57;9.85;;;1.67;;
55545;SDS011;44768;50.298;127.520;2022-09-13T17:24:59;2.88;;;1.52;;
55545;SDS011;44768;50.298;127.520;2022-09-13T17:35:04;4.10;;;1.45;;
55545;SDS011;44768;50.298;127.520;2022-09-13T17:40:07;4.15;;;1.63;;
55545;SDS011;44768;50.298;127.520;2022-09-13T17:45:09;4.05;;;1.48;;
55545;SDS011;44768;50.298;127.520;2022-09-13T17:50:11;2.40;;;1.40;;
55545;SDS011;44768;50.298;127.520;2022-09-13T17:55:12;2.55;;;1.30;;
55545;SDS011;44768;50.298;127.520;2022-09-13T18:00:14;3.65;;;1.20;;
55545;SDS011;44768;50.298;127.520;2022-09-13T18:05:18;5.05;;;1.48;;
55545;SDS011;44768;50.298;127.520;2022-09-13T18:15:22;4.28;;;1.70;;
55545;SDS011;44768;50.298;127.520;2022-09-13T18:20:23;1.58;;;1.20;;
55545;SDS011;44768;50.298;127.520;2022-09-13T18:25:24;4.07;;;1.20;;
55545;SDS011;44768;50.298;127.520;2022-09-13T18:30:26;9.38;;;1.30;;
55545;SDS011;44768;50.298;127.520;2022-09-13T18:35:27;2.78;;;1.20;;
55545;SDS011;44768;50.298;127.520;2022-09-13T18:40:28;4.22;;;1.20;;
55545;SDS011;44768;50.298;127.520;2022-09-13T18:45:29;1.15;;;1.00;;
55545;SDS011;44768;50.298;127.520;2022-09-13T18:50:31;3.83;;;1.00;;
55545;SDS011;44768;50.298;127.520;2022-09-13T18:55:33;2.58;;;1.00;;
55545;SDS011;44768;50.298;127.520;2022-09-13T19:00:34;2.00;;;1.08;;
55545;SDS011;44768;50.298;127.520;2022-09-13T19:05:36;5.70;;;1.00;;
55545;SDS011;44768;50.298;127.520;2022-09-13T19:10:39;2.28;;;1.08;;
55545;SDS011;44768;50.298;127.520;2022-09-13T19:15:40;2.17;;;0.93;;
55545;SDS011;44768;50.298;127.520;2022-09-13T19:25:43;0.85;;;0.85;;
55545;SDS011;44768;50.298;127.520;2022-09-13T19:30:44;2.38;;;1.17;;
55545;SDS011;44768;50.298;127.520;2022-09-13T19:35:49;0.90;;;0.90;;
55545;SDS011;44768;50.298;127.520;2022-09-13T19:40:54;1.00;;;0.90;;
55545;SDS011;44768;50.298;127.520;2022-09-13T19:46:00;2.03;;;1.10;;
55545;SDS011;44768;50.298;127.520;2022-09-13T19:51:02;1.08;;;0.88;;
55545;SDS011;44768;50.298;127.520;2022-09-13T19:56:06;0.95;;;0.90;;
55545;SDS011;44768;50.298;127.520;2022-09-13T20:01:14;3.53;;;1.10;;
55545;SDS011;44768;50.298;127.520;2022-09-13T20:06:16;3.47;;;0.90;;
55545;SDS011;44768;50.298;127.520;2022-09-13T20:11:18;1.52;;;0.98;;
55545;SDS011;44768;50.298;127.520;2022-09-13T20:16:21;1.85;;;1.02;;
55545;SDS011;44768;50.298;127.520;2022-09-13T20:21:24;4.72;;;1.13;;
55545;SDS011;44768;50.298;127.520;2022-09-13T20:26:26;7.63;;;1.50;;
55545;SDS011;44768;50.298;127.520;2022-09-13T20:31:28;5.15;;;1.38;;
55545;SDS011;44768;50.298;127.520;2022-09-13T20:36:30;10.55;;;1.33;;
55545;SDS011;44768;50.298;127.520;2022-09-13T20:41:31;5.68;;;1.00;;
55545;SDS011;44768;50.298;127.520;2022-09-13T20:46:32;7.77;;;1.20;;
55545;SDS011;44768;50.298;127.520;2022-09-13T20:51:34;11.75;;;1.30;;
55545;SDS011;44768;50.298;127.520;2022-09-13T20:56:35;3.80;;;0.90;;
55545;SDS011;44768;50.298;127.520;2022-09-13T21:06:38;6.80;;;1.63;;
55545;SDS011;44768;50.298;127.520;2022-09-13T21:11:59;3.77;;;1.13;;
55545;SDS011;44768;50.298;127.520;2022-09-13T21:17:01;3.92;;;1.45;;
55545;SDS011;44768;50.298;127.520;2022-09-13T21:22:06;7.65;;;1.80;;
55545;SDS011;44768;50.298;127.520;2022-09-13T21:32:09;11.00;;;1.40;;
55545;SDS011;44768;50.298;127.520;2022-09-13T21:37:10;7.45;;;1.50;;
55545;SDS011;44768;50.298;127.520;2022-09-13T21:42:12;7.75;;;1.67;;
55545;SDS011;44768;50.298;127.520;2022-09-13T21:47:16;6.53;;;1.65;;
55545;SDS011;44768;50.298;127.520;2022-09-13T21:52:17;14.63;;;1.65;;
55545;SDS011;44768;50.298;127.520;2022-09-13T21:57:19;14.43;;;1.88;;
55545;SDS011;44768;50.298;127.520;2022-09-13T22:02:21;10.02;;;1.38;;
55545;SDS011;44768;50.298;127.520;2022-09-13T22:07:22;6.55;;;2.10;;
55545;SDS011;44768;50.298;127.520;2022-09-13T22:12:23;16.70;;;1.85;;
55545;SDS011;44768;50.298;127.520;2022-09-13T22:17:25;23.67;;;2.42;;
55545;SDS011;44768;50.298;127.520;2022-09-13T22:22:26;26.80;;;2.25;;
55545;SDS011;44768;50.298;127.520;2022-09-13T22:32:29;32.67;;;2.67;;
55545;SDS011;44768;50.298;127.520;2022-09-13T22:37:30;23.48;;;3.13;;
55545;SDS011;44768;50.298;127.520;2022-09-13T22:42:31;17.58;;;2.50;;
55545;SDS011;44768;50.298;127.520;2022-09-13T22:47:32;54.80;;;3.28;;
55545;SDS011;44768;50.298;127.520;2022-09-13T22:52:33;36.15;;;3.40;;
55545;SDS011;44768;50.298;127.520;2022-09-13T22:57:35;45.30;;;3.13;;
55545;SDS011;44768;50.298;127.520;2022-09-13T23:02:36;27.55;;;2.67;;
55545;SDS011;44768;50.298;127.520;2022-09-13T23:07:37;35.15;;;3.70;;
55545;SDS011;44768;50.298;127.520;2022-09-13T23:12:38;23.05;;;3.10;;
55545;SDS011;44768;50.298;127.520;2022-09-13T23:17:40;35.30;;;3.70;;
55545;SDS011;44768;50.298;127.520;2022-09-13T23:22:42;20.83;;;3.05;;
55545;SDS011;44768;50.298;127.520;2022-09-13T23:27:45;12.95;;;2.40;;
55545;SDS011;44768;50.298;127.520;2022-09-13T23:32:48;11.98;;;2.63;;
55545;SDS011;44768;50.298;127.520;2022-09-13T23:37:50;23.05;;;2.72;;
55545;SDS011;44768;50.298;127.520;2022-09-13T23:42:51;12.23;;;2.33;;
55545;SDS011;44768;50.298;127.520;2022-09-13T23:47:53;12.30;;;2.80;;
55545;SDS011;44768;50.298;127.520;2022-09-13T23:52:54;20.48;;;2.60;;
